createdAt,value
2018-02-05T00:00:42.325Z,21.70
2018-02-05T00:03:09.810Z,21.60
2018-02-05T00:05:37.360Z,21.70
2018-02-05T00:08:04.821Z,21.60
2018-02-05T00:10:32.313Z,21.60
2018-02-05T00:12:59.773Z,21.60
2018-02-05T00:15:27.309Z,21.60
2018-02-05T00:17:54.934Z,21.60
2018-02-05T00:20:22.405Z,21.60
2018-02-05T00:22:49.861Z,21.60
2018-02-05T00:25:17.333Z,21.60
2018-02-05T00:27:44.800Z,21.60
2018-02-05T00:30:12.279Z,21.60
2018-02-05T00:32:39.735Z,21.50
2018-02-05T00:35:07.200Z,21.50
2018-02-05T00:37:34.652Z,21.50
2018-02-05T00:40:02.239Z,21.50
2018-02-05T00:42:29.829Z,21.50
2018-02-05T00:44:57.305Z,21.50
2018-02-05T00:47:24.791Z,21.50
2018-02-05T00:49:52.297Z,21.50
2018-02-05T00:52:19.758Z,21.50
2018-02-05T00:54:47.213Z,21.50
2018-02-05T00:57:14.673Z,21.50
2018-02-05T00:59:42.168Z,21.50
2018-02-05T01:02:09.806Z,21.50
2018-02-05T01:04:37.389Z,21.50
2018-02-05T01:07:05.157Z,21.50
2018-02-05T01:09:32.625Z,21.50
2018-02-05T01:12:00.248Z,21.50
2018-02-05T01:14:27.856Z,21.50
2018-02-05T01:16:55.466Z,21.50
2018-02-05T01:19:23.057Z,21.50
2018-02-05T01:21:50.687Z,21.40
2018-02-05T01:24:18.199Z,21.50
2018-02-05T01:26:45.660Z,21.50
2018-02-05T01:29:13.132Z,21.50
2018-02-05T01:31:40.584Z,21.50
2018-02-05T01:34:08.052Z,21.50
2018-02-05T01:36:35.505Z,21.50
2018-02-05T01:39:02.959Z,21.50
2018-02-05T01:41:30.424Z,21.50
2018-02-05T01:43:57.885Z,21.40
2018-02-05T01:46:25.341Z,21.50
2018-02-05T01:48:52.881Z,21.50
2018-02-05T01:51:20.337Z,21.50
2018-02-05T01:53:47.796Z,21.50
2018-02-05T01:56:15.281Z,21.50
2018-02-05T01:58:42.728Z,21.40
2018-02-05T02:01:10.186Z,21.40
2018-02-05T02:03:37.922Z,21.50
2018-02-05T02:06:05.394Z,21.50
2018-02-05T02:08:33.014Z,21.50
2018-02-05T02:11:00.525Z,21.50
2018-02-05T02:13:28.064Z,21.50
2018-02-05T02:15:55.536Z,21.50
2018-02-05T02:18:23.014Z,21.50
2018-02-05T02:20:50.761Z,21.40
2018-02-05T02:23:18.221Z,21.50
2018-02-05T02:25:45.952Z,21.50
2018-02-05T02:28:13.720Z,21.40
2018-02-05T02:30:41.482Z,21.40
2018-02-05T02:33:08.940Z,21.40
2018-02-05T02:35:36.396Z,21.40
2018-02-05T02:38:04.036Z,21.40
2018-02-05T02:40:31.550Z,21.40
2018-02-05T02:42:58.998Z,21.40
2018-02-05T02:45:26.453Z,21.40
2018-02-05T02:47:53.928Z,21.40
2018-02-05T02:50:21.390Z,21.40
2018-02-05T02:52:48.943Z,21.40
2018-02-05T02:55:16.697Z,21.40
2018-02-05T02:57:44.252Z,21.40
2018-02-05T03:00:11.777Z,21.40
2018-02-05T03:02:39.244Z,21.40
2018-02-05T03:05:06.718Z,21.40
2018-02-05T03:07:34.292Z,21.40
2018-02-05T03:10:01.767Z,21.40
2018-02-05T03:12:29.498Z,21.40
2018-02-05T03:14:56.948Z,21.30
2018-02-05T03:17:24.427Z,21.30
2018-02-05T03:19:51.876Z,21.30
2018-02-05T03:22:19.517Z,21.30
2018-02-05T03:24:46.997Z,21.30
2018-02-05T03:27:14.455Z,21.30
2018-02-05T03:29:41.928Z,21.40
2018-02-05T03:32:09.485Z,21.40
2018-02-05T03:34:36.933Z,21.40
2018-02-05T03:37:04.691Z,21.40
2018-02-05T03:39:32.168Z,21.40
2018-02-05T03:41:59.928Z,21.40
2018-02-05T03:44:27.561Z,21.40
2018-02-05T03:46:55.097Z,21.40
2018-02-05T03:49:22.585Z,21.40
2018-02-05T03:51:50.252Z,21.40
2018-02-05T03:54:17.713Z,21.40
2018-02-05T03:56:45.283Z,21.30
2018-02-05T03:59:12.746Z,21.30
2018-02-05T04:01:40.492Z,21.30
2018-02-05T04:04:07.945Z,21.30
2018-02-05T04:06:40.944Z,21.30
2018-02-05T04:09:08.413Z,21.30
2018-02-05T04:11:35.878Z,21.30
2018-02-05T04:14:03.633Z,21.30
2018-02-05T04:16:31.102Z,21.30
2018-02-05T04:18:58.734Z,21.30
2018-02-05T04:21:26.198Z,21.30
2018-02-05T04:23:53.675Z,21.30
2018-02-05T04:26:21.155Z,21.30
2018-02-05T04:28:48.613Z,21.30
2018-02-05T04:31:16.089Z,21.30
2018-02-05T04:33:43.539Z,21.30
2018-02-05T04:36:11.006Z,21.30
2018-02-05T04:38:38.463Z,21.20
2018-02-05T04:41:05.928Z,21.30
2018-02-05T04:43:33.390Z,21.30
2018-02-05T04:46:00.855Z,21.20
2018-02-05T04:48:28.301Z,21.30
2018-02-05T04:50:55.757Z,21.30
2018-02-05T04:53:23.221Z,21.30
2018-02-05T04:55:50.683Z,21.30
2018-02-05T04:58:18.170Z,21.30
2018-02-05T05:00:46.192Z,21.30
2018-02-05T05:03:13.678Z,21.30
2018-02-05T05:05:41.157Z,21.30
2018-02-05T05:08:08.938Z,21.30
2018-02-05T05:10:36.396Z,21.30
2018-02-05T05:13:03.876Z,21.30
2018-02-05T05:15:31.489Z,21.30
2018-02-05T05:17:59.081Z,21.30
2018-02-05T05:20:26.841Z,21.30
2018-02-05T05:22:54.607Z,21.30
2018-02-05T05:25:22.369Z,21.30
2018-02-05T05:27:49.823Z,21.20
2018-02-05T05:30:17.589Z,21.20
2018-02-05T05:32:45.072Z,21.30
2018-02-05T05:35:12.705Z,21.20
2018-02-05T05:37:40.264Z,21.30
2018-02-05T05:40:07.724Z,21.30
2018-02-05T05:42:35.185Z,21.30
2018-02-05T05:45:02.816Z,21.30
2018-02-05T05:47:30.303Z,21.30
2018-02-05T05:49:57.761Z,21.30
2018-02-05T05:52:26.004Z,21.30
2018-02-05T05:54:53.465Z,21.30
2018-02-05T05:57:21.152Z,21.30
2018-02-05T05:59:48.820Z,21.30
2018-02-05T06:02:16.312Z,21.30
2018-02-05T06:04:43.873Z,21.30
2018-02-05T06:07:11.621Z,21.30
2018-02-05T06:09:39.569Z,21.30
2018-02-05T06:12:07.097Z,21.30
2018-02-05T06:14:34.600Z,21.30
2018-02-05T06:17:02.068Z,21.20
2018-02-05T06:19:29.831Z,21.20
2018-02-05T06:21:57.304Z,21.20
2018-02-05T06:24:24.921Z,21.20
2018-02-05T06:26:52.401Z,21.20
2018-02-05T06:29:19.958Z,21.20
2018-02-05T06:31:47.596Z,21.20
2018-02-05T06:34:15.111Z,21.20
2018-02-05T06:36:42.566Z,21.20
2018-02-05T06:39:10.028Z,21.20
2018-02-05T06:41:37.482Z,21.20
2018-02-05T06:44:04.928Z,21.20
2018-02-05T06:46:32.483Z,21.20
2018-02-05T06:49:00.214Z,21.10
2018-02-05T06:51:39.461Z,21.10
2018-02-05T06:54:18.806Z,21.20
2018-02-05T06:56:46.357Z,21.10
2018-02-05T06:59:13.889Z,21.10
2018-02-05T07:01:41.401Z,21.10
2018-02-05T07:04:08.859Z,21.10
2018-02-05T07:06:36.413Z,21.10
2018-02-05T07:09:03.882Z,21.10
2018-02-05T07:11:31.427Z,21.10
2018-02-05T07:13:58.973Z,21.10
2018-02-05T07:16:26.430Z,21.10
2018-02-05T07:18:53.907Z,21.10
2018-02-05T07:21:21.350Z,21.10
2018-02-05T07:23:48.820Z,21.10
2018-02-05T07:26:16.365Z,21.10
2018-02-05T07:28:44.041Z,21.10
2018-02-05T07:31:11.501Z,21.10
2018-02-05T07:33:38.953Z,21.10
2018-02-05T07:36:06.402Z,21.10
2018-02-05T07:38:33.888Z,21.10
2018-02-05T07:41:01.329Z,21.10
2018-02-05T07:43:28.869Z,21.10
2018-02-05T07:45:56.645Z,21.10
2018-02-05T07:48:24.100Z,21.10
2018-02-05T07:50:51.737Z,21.10
2018-02-05T07:53:19.324Z,21.10
2018-02-05T07:55:46.886Z,21.10
2018-02-05T07:58:14.345Z,21.10
2018-02-05T08:00:41.796Z,21.10
2018-02-05T08:03:09.278Z,21.10
2018-02-05T08:05:36.921Z,21.10
2018-02-05T08:08:04.609Z,21.10
2018-02-05T08:10:32.134Z,21.10
2018-02-05T08:12:59.763Z,21.10
2018-02-05T08:15:27.205Z,21.10
2018-02-05T08:17:54.781Z,21.10
2018-02-05T08:20:22.223Z,21.10
2018-02-05T08:22:49.694Z,21.10
2018-02-05T08:25:17.176Z,21.20
2018-02-05T08:27:44.667Z,21.20
2018-02-05T08:30:12.292Z,21.20
2018-02-05T08:32:39.749Z,21.20
2018-02-05T08:35:07.208Z,21.20
2018-02-05T08:37:34.665Z,21.20
2018-02-05T08:40:02.166Z,21.20
2018-02-05T08:42:29.640Z,21.20
2018-02-05T08:44:57.095Z,21.20
2018-02-05T08:47:24.553Z,21.20
2018-02-05T08:49:52.087Z,21.20
2018-02-05T08:52:20.213Z,21.20
2018-02-05T08:54:47.820Z,21.20
2018-02-05T08:57:15.380Z,21.20
2018-02-05T08:59:42.860Z,21.20
2018-02-05T09:02:10.605Z,21.20
2018-02-05T09:04:38.241Z,21.20
2018-02-05T09:07:05.784Z,21.20
2018-02-05T09:09:33.238Z,21.20
2018-02-05T09:12:00.709Z,21.20
2018-02-05T09:14:28.195Z,21.20
2018-02-05T09:16:55.817Z,21.20
2018-02-05T09:19:23.337Z,21.20
2018-02-05T09:21:50.797Z,21.20
2018-02-05T09:24:18.279Z,21.20
2018-02-05T09:26:45.792Z,21.20
2018-02-05T09:29:13.570Z,21.30
2018-02-05T09:31:41.133Z,21.20
2018-02-05T09:34:08.624Z,21.30
2018-02-05T09:36:36.845Z,21.30
2018-02-05T09:39:04.320Z,21.30
2018-02-05T09:41:31.880Z,21.30
2018-02-05T09:43:59.336Z,21.30
2018-02-05T09:46:26.896Z,21.30
2018-02-05T09:48:54.462Z,21.30
2018-02-05T09:51:22.239Z,21.30
2018-02-05T09:53:49.704Z,21.30
2018-02-05T09:56:17.445Z,21.30
2018-02-05T09:58:45.082Z,21.30
2018-02-05T10:01:12.540Z,21.30
2018-02-05T10:03:40.004Z,21.30
2018-02-05T10:06:07.576Z,21.30
2018-02-05T10:08:35.346Z,21.30
2018-02-05T10:11:02.797Z,21.30
2018-02-05T10:13:30.273Z,21.30
2018-02-05T10:15:57.737Z,21.40
2018-02-05T10:18:25.213Z,21.40
2018-02-05T10:20:52.691Z,21.40
2018-02-05T10:23:20.388Z,21.40
2018-02-05T10:25:47.845Z,21.40
2018-02-05T10:28:15.435Z,21.40
2018-02-05T10:30:42.891Z,21.40
2018-02-05T10:33:10.462Z,21.40
2018-02-05T10:35:37.917Z,21.40
2018-02-05T10:38:05.471Z,21.50
2018-02-05T10:40:33.107Z,21.50
2018-02-05T10:43:00.843Z,21.40
2018-02-05T10:45:28.437Z,21.50
2018-02-05T10:47:55.900Z,21.50
2018-02-05T10:50:23.811Z,21.50
2018-02-05T10:52:51.427Z,21.50
2018-02-05T10:55:18.993Z,21.50
2018-02-05T10:57:46.565Z,21.50
2018-02-05T11:00:14.026Z,21.50
2018-02-05T11:02:41.482Z,21.50
2018-02-05T11:05:09.849Z,21.50
2018-02-05T11:07:37.505Z,21.50
2018-02-05T11:10:05.171Z,21.50
2018-02-05T11:12:32.801Z,21.50
2018-02-05T11:15:00.313Z,21.50
2018-02-05T11:17:27.769Z,21.60
2018-02-05T11:19:55.229Z,21.50
2018-02-05T11:22:22.684Z,21.60
2018-02-05T11:24:51.152Z,21.60
2018-02-05T11:27:18.610Z,21.50
2018-02-05T11:29:46.384Z,21.60
2018-02-05T11:32:13.998Z,21.60
2018-02-05T11:34:41.452Z,21.60
2018-02-05T11:37:08.945Z,21.60
2018-02-05T11:39:36.417Z,21.60
2018-02-05T11:42:03.978Z,21.60
2018-02-05T11:44:31.745Z,21.60
2018-02-05T11:46:59.506Z,21.70
2018-02-05T11:49:27.263Z,21.70
2018-02-05T11:51:54.881Z,21.60
2018-02-05T11:54:22.337Z,21.70
2018-02-05T11:56:49.936Z,21.70
2018-02-05T11:59:17.402Z,21.70
2018-02-05T12:01:45.177Z,21.70
2018-02-05T12:04:12.633Z,21.60
2018-02-05T12:06:40.088Z,21.60
2018-02-05T12:09:07.753Z,21.60
2018-02-05T12:11:35.195Z,21.60
2018-02-05T12:14:02.664Z,21.60
2018-02-05T12:16:30.113Z,21.60
2018-02-05T12:18:57.587Z,21.60
2018-02-05T12:21:25.128Z,21.60
2018-02-05T12:23:52.616Z,21.60
2018-02-05T12:26:20.367Z,21.60
2018-02-05T12:28:48.000Z,21.60
2018-02-05T12:31:15.482Z,21.60
2018-02-05T12:33:43.033Z,21.60
2018-02-05T12:36:10.485Z,21.60
2018-02-05T12:38:37.948Z,21.60
2018-02-05T12:41:05.509Z,21.60
2018-02-05T12:43:33.050Z,21.60
2018-02-05T12:46:00.503Z,21.60
2018-02-05T12:48:27.972Z,21.60
2018-02-05T12:50:55.545Z,21.60
2018-02-05T12:53:23.016Z,21.60
2018-02-05T12:55:50.652Z,21.60
2018-02-05T12:58:18.108Z,21.60
2018-02-05T13:00:51.587Z,21.60
2018-02-05T13:06:25.206Z,21.60
2018-02-05T13:08:52.908Z,21.60
2018-02-05T13:11:20.393Z,21.60
2018-02-05T13:13:48.041Z,21.60
2018-02-05T13:16:15.595Z,21.60
2018-02-05T13:18:43.084Z,21.60
2018-02-05T13:21:10.563Z,21.60
2018-02-05T13:23:38.263Z,21.50
2018-02-05T13:26:05.739Z,21.60
2018-02-05T13:28:33.353Z,21.60
2018-02-05T13:31:00.829Z,21.50
2018-02-05T13:33:28.404Z,21.50
2018-02-05T13:35:55.871Z,21.50
2018-02-05T13:38:23.327Z,21.50
2018-02-05T13:40:50.806Z,21.50
2018-02-05T13:43:18.597Z,21.60
2018-02-05T13:45:46.329Z,21.50
2018-02-05T13:48:14.141Z,21.50
2018-02-05T13:50:43.514Z,21.50
2018-02-05T13:53:11.108Z,21.50
2018-02-05T13:55:38.567Z,21.60
2018-02-05T13:58:06.020Z,21.50
2018-02-05T14:00:33.528Z,21.50
2018-02-05T14:03:00.983Z,21.60
2018-02-05T14:05:28.643Z,21.50
2018-02-05T14:07:56.108Z,21.50
2018-02-05T14:10:23.720Z,21.50
2018-02-05T14:12:51.429Z,21.50
2018-02-05T14:15:19.193Z,21.50
2018-02-05T14:17:46.888Z,21.50
2018-02-05T14:20:14.417Z,21.50
2018-02-05T14:22:42.042Z,21.50
2018-02-05T14:25:09.558Z,21.50
2018-02-05T14:27:38.180Z,21.50
2018-02-05T14:30:05.657Z,21.50
2018-02-05T14:32:33.201Z,21.50
2018-02-05T14:35:00.697Z,21.50
2018-02-05T14:37:28.321Z,21.50
2018-02-05T14:39:55.913Z,21.50
2018-02-05T14:42:23.365Z,21.50
2018-02-05T14:44:51.154Z,21.50
2018-02-05T14:47:18.976Z,21.50
2018-02-05T14:49:46.528Z,21.50
2018-02-05T14:52:14.069Z,21.50
2018-02-05T14:54:41.525Z,21.50
2018-02-05T14:57:08.989Z,21.50
2018-02-05T14:59:36.500Z,21.50
2018-02-05T15:02:04.269Z,21.50
2018-02-05T15:04:31.739Z,21.50
2018-02-05T15:06:59.180Z,21.40
2018-02-05T15:09:26.656Z,21.50
2018-02-05T15:11:54.097Z,21.50
2018-02-05T15:14:21.565Z,21.40
2018-02-05T15:16:49.064Z,21.50
2018-02-05T15:19:16.612Z,21.50
2018-02-05T15:21:45.041Z,21.50
2018-02-05T15:24:12.499Z,21.40
2018-02-05T15:26:40.005Z,21.40
2018-02-05T15:29:07.457Z,21.40
2018-02-05T15:31:35.300Z,21.50
2018-02-05T15:34:02.768Z,21.40
2018-02-05T15:36:30.413Z,21.40
2018-02-05T15:38:57.889Z,21.40
2018-02-05T15:41:25.348Z,21.40
2018-02-05T15:43:52.806Z,21.50
2018-02-05T15:46:21.037Z,21.50
2018-02-05T15:48:48.493Z,21.40
2018-02-05T15:51:16.196Z,21.40
2018-02-05T15:53:43.656Z,21.40
2018-02-05T15:56:11.413Z,21.40
2018-02-05T15:58:40.376Z,21.40
2018-02-05T16:01:07.925Z,21.40
2018-02-05T16:03:35.530Z,21.40
2018-02-05T16:06:03.001Z,21.40
2018-02-05T16:08:31.248Z,21.40
2018-02-05T16:10:58.696Z,21.40
2018-02-05T16:13:26.164Z,21.40
2018-02-05T16:15:53.642Z,21.40
2018-02-05T16:18:21.305Z,21.40
2018-02-05T16:20:48.777Z,21.40
2018-02-05T16:23:16.412Z,21.40
2018-02-05T16:25:43.873Z,21.40
2018-02-05T16:28:11.781Z,21.40
2018-02-05T16:30:39.512Z,21.40
2018-02-05T16:33:07.238Z,21.40
2018-02-05T16:35:34.698Z,21.40
2018-02-05T16:38:02.174Z,21.40
2018-02-05T16:40:29.681Z,21.40
2018-02-05T16:42:57.293Z,21.40
2018-02-05T16:45:24.759Z,21.30
2018-02-05T16:47:52.213Z,21.40
2018-02-05T16:50:19.697Z,21.40
2018-02-05T16:52:47.240Z,21.40
2018-02-05T16:55:14.705Z,21.40
2018-02-05T16:57:42.177Z,21.40
2018-02-05T17:00:09.635Z,21.40
2018-02-05T17:02:37.389Z,21.40
2018-02-05T17:05:04.925Z,21.40
2018-02-05T17:07:32.481Z,21.40
2018-02-05T17:10:00.230Z,21.40
2018-02-05T17:12:27.783Z,21.40
2018-02-05T17:14:55.227Z,21.40
2018-02-05T17:17:22.692Z,21.40
2018-02-05T17:19:50.172Z,21.30
2018-02-05T17:22:17.633Z,21.40
2018-02-05T17:24:45.291Z,21.40
2018-02-05T17:27:12.762Z,21.40
2018-02-05T17:29:40.354Z,21.40
2018-02-05T17:32:07.812Z,21.40
2018-02-05T17:34:35.498Z,21.40
2018-02-05T17:37:03.358Z,21.40
2018-02-05T17:39:30.897Z,21.40
2018-02-05T17:41:58.463Z,21.50
2018-02-05T17:44:26.673Z,21.50
2018-02-05T17:46:54.163Z,21.50
2018-02-05T17:49:21.652Z,21.50
2018-02-05T17:51:49.248Z,21.50
2018-02-05T17:54:16.761Z,21.50
2018-02-05T17:56:44.245Z,21.60
2018-02-05T17:59:11.924Z,21.60
2018-02-05T18:01:39.403Z,21.70
2018-02-05T18:04:06.916Z,21.80
2018-02-05T18:06:34.681Z,21.90
2018-02-05T18:09:02.246Z,21.90
2018-02-05T18:11:29.888Z,22.00
2018-02-05T18:13:57.344Z,22.10
2018-02-05T18:16:24.989Z,22.10
2018-02-05T18:18:52.480Z,22.20
2018-02-05T18:21:20.024Z,22.20
2018-02-05T18:23:47.509Z,22.30
2018-02-05T18:26:15.260Z,22.30
2018-02-05T18:28:42.722Z,22.40
2018-02-05T18:31:10.192Z,22.40
2018-02-05T18:33:37.918Z,22.50
2018-02-05T18:36:05.392Z,22.50
2018-02-05T18:38:33.021Z,22.50
2018-02-05T18:41:00.512Z,22.60
2018-02-05T18:43:28.073Z,22.60
2018-02-05T18:45:55.536Z,22.60
2018-02-05T18:48:23.293Z,22.60
2018-02-05T18:50:51.057Z,22.70
2018-02-05T18:53:18.922Z,22.70
2018-02-05T18:55:46.584Z,22.70
2018-02-05T18:58:14.352Z,22.70
2018-02-05T19:00:48.483Z,22.70
2018-02-05T19:03:15.938Z,22.70
2018-02-05T19:05:43.433Z,22.70
2018-02-05T19:08:10.872Z,22.70
2018-02-05T19:10:38.330Z,22.70
2018-02-05T19:13:05.797Z,22.70
2018-02-05T19:15:33.304Z,22.60
2018-02-05T19:18:00.970Z,22.60
2018-02-05T19:20:28.553Z,22.60
2018-02-05T19:22:56.216Z,22.60
2018-02-05T19:25:23.684Z,22.60
2018-02-05T19:27:51.153Z,22.60
2018-02-05T19:30:18.596Z,22.60
2018-02-05T19:32:46.080Z,22.50
2018-02-05T19:35:13.521Z,22.50
2018-02-05T19:37:40.981Z,22.60
2018-02-05T19:40:08.521Z,22.50
2018-02-05T19:42:36.210Z,22.50
2018-02-05T19:45:04.524Z,22.50
2018-02-05T19:47:31.986Z,22.50
2018-02-05T19:49:59.564Z,22.50
2018-02-05T19:52:27.017Z,22.50
2018-02-05T19:54:54.513Z,22.50
2018-02-05T19:57:22.298Z,22.50
2018-02-05T19:59:50.040Z,22.50
2018-02-05T20:02:17.493Z,22.50
2018-02-05T20:04:45.108Z,22.50
2018-02-05T20:07:13.852Z,22.50
2018-02-05T20:09:43.536Z,22.50
2018-02-05T20:12:11.004Z,22.50
2018-02-05T20:14:38.776Z,22.50
2018-02-05T20:17:06.441Z,22.50
2018-02-05T20:19:33.895Z,22.40
2018-02-05T20:22:01.348Z,22.40
2018-02-05T20:24:28.813Z,22.40
2018-02-05T20:26:56.356Z,22.40
2018-02-05T20:29:23.824Z,22.40
2018-02-05T20:31:52.108Z,22.40
2018-02-05T20:34:21.058Z,22.40
2018-02-05T20:36:48.567Z,22.40
2018-02-05T20:39:16.099Z,22.40
2018-02-05T20:41:43.677Z,22.40
2018-02-05T20:44:11.321Z,22.40
2018-02-05T20:46:38.801Z,22.40
2018-02-05T20:49:06.263Z,22.40
2018-02-05T20:51:34.026Z,22.40
2018-02-05T20:54:01.640Z,22.40
2018-02-05T20:56:29.150Z,22.30
2018-02-05T20:58:56.597Z,22.20
2018-02-05T21:01:25.000Z,22.00
2018-02-05T21:03:52.464Z,22.00
2018-02-05T21:06:19.983Z,22.00
2018-02-05T21:08:47.731Z,22.00
2018-02-05T21:11:15.368Z,22.00
2018-02-05T21:13:42.841Z,22.00
2018-02-05T21:16:10.341Z,22.00
2018-02-05T21:18:38.800Z,22.00
2018-02-05T21:21:06.570Z,22.00
2018-02-05T21:23:34.300Z,22.00
2018-02-05T21:26:01.795Z,22.00
2018-02-05T21:28:29.553Z,21.90
2018-02-05T21:30:57.214Z,21.90
2018-02-05T21:33:24.674Z,21.90
2018-02-05T21:35:52.117Z,21.90
2018-02-05T21:38:20.220Z,21.90
2018-02-05T21:40:48.657Z,21.90
2018-02-05T21:43:16.121Z,21.80
2018-02-05T21:45:43.904Z,21.90
2018-02-05T21:48:11.679Z,21.90
2018-02-05T21:50:39.319Z,21.90
2018-02-05T21:53:06.786Z,21.80
2018-02-05T21:55:34.308Z,21.80
2018-02-05T21:58:01.788Z,21.80
2018-02-05T22:00:29.241Z,21.80
2018-02-05T22:02:56.708Z,21.70
2018-02-05T22:05:24.153Z,21.70
2018-02-05T22:07:51.639Z,21.70
2018-02-05T22:10:19.085Z,21.70
2018-02-05T22:12:46.536Z,21.70
2018-02-05T22:15:13.983Z,21.70
2018-02-05T22:17:41.452Z,21.70
2018-02-05T22:20:09.004Z,21.70
2018-02-05T22:22:36.696Z,21.60
2018-02-05T22:25:04.329Z,21.60
2018-02-05T22:27:31.924Z,21.60
2018-02-05T22:29:59.382Z,21.60
2018-02-05T22:32:27.030Z,21.60
2018-02-05T22:34:54.602Z,21.60
2018-02-05T22:37:22.381Z,21.60
2018-02-05T22:39:49.996Z,21.60
2018-02-05T22:42:17.452Z,21.60
2018-02-05T22:44:46.817Z,21.60
2018-02-05T22:47:14.279Z,21.60
2018-02-05T22:49:41.749Z,21.60
2018-02-05T22:52:09.231Z,21.60
2018-02-05T22:54:36.732Z,21.60
2018-02-05T22:57:04.485Z,21.60
2018-02-05T22:59:32.253Z,21.60
2018-02-05T23:01:59.696Z,21.60
2018-02-05T23:04:27.167Z,21.50
2018-02-05T23:06:54.796Z,21.50
2018-02-05T23:09:22.276Z,21.50
2018-02-05T23:11:49.750Z,21.50
2018-02-05T23:14:17.316Z,21.50
2018-02-05T23:16:44.932Z,21.50
2018-02-05T23:19:12.410Z,21.50
2018-02-05T23:21:39.993Z,21.50
2018-02-05T23:24:07.448Z,21.50
2018-02-05T23:26:35.380Z,21.50
2018-02-05T23:29:02.843Z,21.50
2018-02-05T23:31:30.306Z,21.50
2018-02-05T23:33:57.893Z,21.50
2018-02-05T23:36:25.544Z,21.50
2018-02-05T23:38:53.091Z,21.50
2018-02-05T23:41:20.530Z,21.50
2018-02-05T23:43:47.995Z,21.50
2018-02-05T23:46:15.498Z,21.50
2018-02-05T23:48:43.040Z,21.50
2018-02-05T23:51:10.589Z,21.50
2018-02-05T23:53:38.069Z,21.50
2018-02-05T23:56:05.629Z,21.40
2018-02-05T23:58:33.385Z,21.40
